createdAt,value
2018-08-11T00:00:35.852Z,20.5
2018-08-11T00:01:35.779Z,20.5
2018-08-11T00:02:35.830Z,20.5
2018-08-11T00:03:35.879Z,20.5
2018-08-11T00:04:35.874Z,20.5
2018-08-11T00:05:35.832Z,20.44
2018-08-11T00:06:35.798Z,20.44
2018-08-11T00:07:36.048Z,20.37
2018-08-11T00:08:35.955Z,20.44
2018-08-11T00:09:35.974Z,20.37
2018-08-11T00:10:35.782Z,20.37
2018-08-11T00:11:35.808Z,20.37
2018-08-11T00:12:35.909Z,20.37
2018-08-11T00:13:35.974Z,20.31
2018-08-11T00:14:35.778Z,20.31
2018-08-11T00:15:35.808Z,20.31
2018-08-11T00:16:35.805Z,20.31
2018-08-11T00:17:35.801Z,20.25
2018-08-11T00:18:35.804Z,20.25
2018-08-11T00:19:35.938Z,20.19
2018-08-11T00:20:36.143Z,20.25
2018-08-11T00:21:35.830Z,20.19
2018-08-11T00:22:35.865Z,20.19
2018-08-11T00:23:35.820Z,20.19
2018-08-11T00:24:35.825Z,20.19
2018-08-11T00:25:35.826Z,20.19
2018-08-11T00:26:35.793Z,20.12
2018-08-11T00:27:35.816Z,20.19
2018-08-11T00:28:35.877Z,20.19
2018-08-11T00:29:35.905Z,20.12
2018-08-11T00:30:35.864Z,20.12
2018-08-11T00:31:35.784Z,20.06
2018-08-11T00:32:35.747Z,20.06
2018-08-11T00:33:35.818Z,20.06
2018-08-11T00:34:35.806Z,20.06
2018-08-11T00:35:35.795Z,20.06
2018-08-11T00:36:36.555Z,20.06
2018-08-11T00:37:35.846Z,20
2018-08-11T00:38:35.873Z,20
2018-08-11T00:39:35.787Z,19.94
2018-08-11T00:40:35.859Z,19.94
2018-08-11T00:41:35.944Z,19.94
2018-08-11T00:42:35.789Z,19.87
2018-08-11T00:43:35.989Z,19.87
2018-08-11T00:44:35.822Z,19.87
2018-08-11T00:45:35.743Z,19.81
2018-08-11T00:46:35.891Z,19.81
2018-08-11T00:47:35.794Z,19.81
2018-08-11T00:48:35.747Z,19.75
2018-08-11T00:49:36.611Z,19.75
2018-08-11T00:50:35.769Z,19.75
2018-08-11T00:51:35.819Z,19.75
2018-08-11T00:52:35.805Z,19.69
2018-08-11T00:53:35.801Z,19.69
2018-08-11T00:54:35.761Z,19.69
2018-08-11T00:55:35.807Z,19.62
2018-08-11T00:56:35.792Z,19.62
2018-08-11T00:57:35.793Z,19.62
2018-08-11T00:58:35.757Z,19.62
2018-08-11T00:59:35.752Z,19.69
2018-08-11T01:00:35.781Z,19.62
2018-08-11T01:01:35.792Z,19.62
2018-08-11T01:02:35.787Z,19.62
2018-08-11T01:03:35.794Z,19.62
2018-08-11T01:04:35.758Z,19.62
2018-08-11T01:05:35.762Z,19.62
2018-08-11T01:06:35.757Z,19.56
2018-08-11T01:07:35.792Z,19.5
2018-08-11T01:08:35.788Z,19.5
2018-08-11T01:09:35.777Z,19.5
2018-08-11T01:10:35.802Z,19.5
2018-08-11T01:11:35.894Z,19.5
2018-08-11T01:12:35.788Z,19.44
2018-08-11T01:13:35.807Z,19.44
2018-08-11T01:14:35.876Z,19.44
2018-08-11T01:15:36.114Z,19.44
2018-08-11T01:16:35.814Z,19.44
2018-08-11T01:17:35.935Z,19.37
2018-08-11T01:18:35.971Z,19.44
2018-08-11T01:19:35.896Z,19.37
2018-08-11T01:20:35.864Z,19.44
2018-08-11T01:21:35.788Z,19.37
2018-08-11T01:22:35.911Z,19.37
2018-08-11T01:23:35.884Z,19.37
2018-08-11T01:24:35.909Z,19.37
2018-08-11T01:25:35.804Z,19.37
2018-08-11T01:26:35.794Z,19.37
2018-08-11T01:27:35.932Z,19.37
2018-08-11T01:28:35.754Z,19.37
2018-08-11T01:29:35.854Z,19.37
2018-08-11T01:30:35.951Z,19.37
2018-08-11T01:31:35.872Z,19.37
2018-08-11T01:32:36.190Z,19.37
2018-08-11T01:33:35.806Z,19.37
2018-08-11T01:34:35.951Z,19.37
2018-08-11T01:35:36.043Z,19.37
2018-08-11T01:36:35.862Z,19.37
2018-08-11T01:37:35.801Z,19.31
2018-08-11T01:38:36.229Z,19.31
2018-08-11T01:39:35.750Z,19.37
2018-08-11T01:40:35.780Z,19.37
2018-08-11T01:41:35.783Z,19.37
2018-08-11T01:42:35.812Z,19.37
2018-08-11T01:43:35.825Z,19.37
2018-08-11T01:44:35.789Z,19.37
2018-08-11T01:45:35.820Z,19.37
2018-08-11T01:46:35.809Z,19.37
2018-08-11T01:47:35.830Z,19.37
2018-08-11T01:48:35.813Z,19.37
2018-08-11T01:49:35.765Z,19.37
2018-08-11T01:50:36.101Z,19.31
2018-08-11T01:51:35.797Z,19.37
2018-08-11T01:52:35.793Z,19.31
2018-08-11T01:53:35.846Z,19.31
2018-08-11T01:54:35.938Z,19.31
2018-08-11T01:55:35.798Z,19.31
2018-08-11T01:56:35.898Z,19.31
2018-08-11T01:57:35.781Z,19.31
2018-08-11T01:58:36.084Z,19.31
2018-08-11T01:59:35.752Z,19.25
2018-08-11T02:00:35.908Z,19.31
2018-08-11T02:01:35.792Z,19.25
2018-08-11T02:02:35.778Z,19.31
2018-08-11T02:03:35.854Z,19.25
2018-08-11T02:04:36.239Z,19.25
2018-08-11T02:05:35.820Z,19.25
2018-08-11T02:06:35.808Z,19.19
2018-08-11T02:07:35.832Z,19.25
2018-08-11T02:08:35.742Z,19.25
2018-08-11T02:09:35.781Z,19.25
2018-08-11T02:10:35.822Z,19.25
2018-08-11T02:11:35.806Z,19.19
2018-08-11T02:12:35.760Z,19.19
2018-08-11T02:13:35.829Z,19.19
2018-08-11T02:14:35.785Z,19.19
2018-08-11T02:15:35.789Z,19.19
2018-08-11T02:16:35.772Z,19.19
2018-08-11T02:17:36.080Z,19.19
2018-08-11T02:18:35.871Z,19.19
2018-08-11T02:19:35.761Z,19.19
2018-08-11T02:20:35.795Z,19.19
2018-08-11T02:21:35.797Z,19.19
2018-08-11T02:22:35.835Z,19.12
2018-08-11T02:23:35.890Z,19.12
2018-08-11T02:24:36.040Z,19.06
2018-08-11T02:25:35.809Z,19.12
2018-08-11T02:26:35.911Z,19.06
2018-08-11T02:27:35.747Z,19.06
2018-08-11T02:28:35.815Z,19.06
2018-08-11T02:29:35.894Z,19
2018-08-11T02:30:35.783Z,19
2018-08-11T02:31:35.803Z,18.94
2018-08-11T02:32:35.817Z,19
2018-08-11T02:33:35.908Z,18.94
2018-08-11T02:34:35.932Z,18.94
2018-08-11T02:35:35.997Z,18.94
2018-08-11T02:36:35.833Z,18.94
2018-08-11T02:37:35.803Z,18.87
2018-08-11T02:38:35.879Z,18.87
2018-08-11T02:39:36.023Z,18.87
2018-08-11T02:40:35.763Z,18.75
2018-08-11T02:41:35.875Z,18.75
2018-08-11T02:42:35.918Z,18.75
2018-08-11T02:43:36.056Z,18.69
2018-08-11T02:44:35.947Z,18.69
2018-08-11T02:45:35.910Z,18.62
2018-08-11T02:46:35.891Z,18.62
2018-08-11T02:47:35.875Z,18.62
2018-08-11T02:48:35.892Z,18.56
2018-08-11T02:49:35.985Z,18.56
2018-08-11T02:50:35.996Z,18.5
2018-08-11T02:51:35.785Z,18.5
2018-08-11T02:52:35.841Z,18.5
2018-08-11T02:53:36.037Z,18.44
2018-08-11T02:54:35.826Z,18.5
2018-08-11T02:55:35.973Z,18.44
2018-08-11T02:56:35.845Z,18.5
2018-08-11T02:57:35.908Z,18.5
2018-08-11T02:58:36.017Z,18.5
2018-08-11T02:59:35.897Z,18.5
2018-08-11T03:00:35.827Z,18.5
2018-08-11T03:01:35.798Z,18.5
2018-08-11T03:02:37.395Z,18.5
2018-08-11T03:03:35.915Z,18.44
2018-08-11T03:04:35.797Z,18.44
2018-08-11T03:05:35.761Z,18.44
2018-08-11T03:06:35.935Z,18.44
2018-08-11T03:07:35.855Z,18.5
2018-08-11T03:08:35.956Z,18.5
2018-08-11T03:09:35.800Z,18.44
2018-08-11T03:10:35.939Z,18.44
2018-08-11T03:11:35.801Z,18.37
2018-08-11T03:12:35.786Z,18.37
2018-08-11T03:13:35.893Z,18.37
2018-08-11T03:14:35.829Z,18.31
2018-08-11T03:15:35.859Z,18.31
2018-08-11T03:16:35.924Z,18.31
2018-08-11T03:17:35.814Z,18.31
2018-08-11T03:18:35.822Z,18.25
2018-08-11T03:19:35.833Z,18.25
2018-08-11T03:20:35.784Z,18.25
2018-08-11T03:21:35.851Z,18.25
2018-08-11T03:22:35.908Z,18.25
2018-08-11T03:23:35.801Z,18.19
2018-08-11T03:24:35.787Z,18.19
2018-08-11T03:25:35.736Z,18.19
2018-08-11T03:26:35.802Z,18.25
2018-08-11T03:27:35.787Z,18.19
2018-08-11T03:28:35.734Z,18.25
2018-08-11T03:29:35.862Z,18.19
2018-08-11T03:30:35.832Z,18.19
2018-08-11T03:31:35.811Z,18.25
2018-08-11T03:32:35.819Z,18.19
2018-08-11T03:33:35.799Z,18.25
2018-08-11T03:34:35.787Z,18.19
2018-08-11T03:35:35.751Z,18.25
2018-08-11T03:36:35.786Z,18.25
2018-08-11T03:37:35.772Z,18.25
2018-08-11T03:38:35.787Z,18.19
2018-08-11T03:39:35.779Z,18.25
2018-08-11T03:40:36.022Z,18.25
2018-08-11T03:41:35.766Z,18.25
2018-08-11T03:42:35.766Z,18.19
2018-08-11T03:43:35.816Z,18.25
2018-08-11T03:44:35.798Z,18.25
2018-08-11T03:45:35.899Z,18.25
2018-08-11T03:46:35.896Z,18.25
2018-08-11T03:47:35.805Z,18.25
2018-08-11T03:48:35.767Z,18.25
2018-08-11T03:49:35.802Z,18.25
2018-08-11T03:50:35.938Z,18.25
2018-08-11T03:51:35.734Z,18.25
2018-08-11T03:52:36.870Z,18.19
2018-08-11T03:53:35.813Z,18.25
2018-08-11T03:54:35.871Z,18.25
2018-08-11T03:55:35.817Z,18.19
2018-08-11T03:56:35.772Z,18.19
2018-08-11T03:57:35.831Z,18.12
2018-08-11T03:58:35.986Z,18.12
2018-08-11T03:59:35.844Z,18.12
2018-08-11T04:00:35.831Z,18.12
2018-08-11T04:01:35.952Z,18.12
2018-08-11T04:02:35.856Z,18.12
2018-08-11T04:03:35.821Z,18.12
2018-08-11T04:04:35.803Z,18.06
2018-08-11T04:05:35.807Z,18.12
2018-08-11T04:06:36.455Z,18.06
2018-08-11T04:07:35.792Z,18.12
2018-08-11T04:08:35.793Z,18.06
2018-08-11T04:09:35.910Z,18.12
2018-08-11T04:10:35.784Z,18.12
2018-08-11T04:11:35.784Z,18.06
2018-08-11T04:12:35.864Z,18.06
2018-08-11T04:13:35.790Z,18.06
2018-08-11T04:14:35.760Z,18.06
2018-08-11T04:15:35.920Z,18.12
2018-08-11T04:16:35.782Z,18.06
2018-08-11T04:17:35.783Z,18.06
2018-08-11T04:18:35.989Z,18.06
2018-08-11T04:19:35.788Z,18.06
2018-08-11T04:20:35.818Z,18.06
2018-08-11T04:21:35.886Z,18
2018-08-11T04:22:35.748Z,18.06
2018-08-11T04:23:35.786Z,18
2018-08-11T04:24:35.801Z,18
2018-08-11T04:25:35.900Z,18
2018-08-11T04:26:35.833Z,18
2018-08-11T04:27:35.810Z,18
2018-08-11T04:28:35.777Z,18
2018-08-11T04:29:35.816Z,17.94
2018-08-11T04:30:35.777Z,18
2018-08-11T04:31:35.768Z,18
2018-08-11T04:32:35.847Z,18
2018-08-11T04:33:35.853Z,18
2018-08-11T04:34:35.789Z,18
2018-08-11T04:35:35.996Z,18
2018-08-11T04:36:35.801Z,18
2018-08-11T04:37:35.756Z,18
2018-08-11T04:38:35.804Z,18
2018-08-11T04:39:35.795Z,17.94
2018-08-11T04:40:35.751Z,18
2018-08-11T04:41:35.758Z,18
2018-08-11T04:42:35.875Z,17.94
2018-08-11T04:43:35.800Z,18
2018-08-11T04:44:35.766Z,18
2018-08-11T04:45:35.766Z,18
2018-08-11T04:46:35.777Z,17.94
2018-08-11T04:47:35.783Z,17.94
2018-08-11T04:48:35.784Z,17.94
2018-08-11T04:49:35.794Z,17.94
2018-08-11T04:50:35.776Z,18
2018-08-11T04:51:35.752Z,17.94
2018-08-11T04:52:35.783Z,17.94
2018-08-11T04:53:35.812Z,17.94
2018-08-11T04:54:35.962Z,17.87
2018-08-11T04:55:35.768Z,17.94
2018-08-11T04:56:36.437Z,17.94
2018-08-11T04:57:35.766Z,17.94
2018-08-11T04:58:35.764Z,18
2018-08-11T04:59:35.976Z,17.94
2018-08-11T05:00:35.760Z,17.94
2018-08-11T05:01:35.765Z,17.94
2018-08-11T05:02:35.778Z,17.87
2018-08-11T05:03:35.946Z,17.94
2018-08-11T05:04:35.934Z,17.87
2018-08-11T05:05:36.634Z,17.87
2018-08-11T05:06:35.785Z,17.87
2018-08-11T05:07:35.781Z,17.87
2018-08-11T05:08:35.824Z,17.87
2018-08-11T05:09:35.881Z,17.87
2018-08-11T05:10:35.920Z,17.87
2018-08-11T05:11:35.806Z,17.94
2018-08-11T05:12:35.748Z,17.87
2018-08-11T05:13:35.852Z,17.87
2018-08-11T05:14:35.783Z,17.87
2018-08-11T05:15:36.216Z,17.87
2018-08-11T05:16:35.779Z,17.94
2018-08-11T05:17:35.826Z,17.87
2018-08-11T05:18:36.153Z,17.94
2018-08-11T05:19:35.799Z,17.94
2018-08-11T05:20:35.767Z,17.94
2018-08-11T05:21:36.019Z,18
2018-08-11T05:22:35.756Z,17.94
2018-08-11T05:23:36.104Z,17.94
2018-08-11T05:24:35.762Z,18
2018-08-11T05:25:35.826Z,18
2018-08-11T05:26:35.920Z,18.06
2018-08-11T05:27:35.804Z,18.12
2018-08-11T05:28:35.952Z,18
2018-08-11T05:29:35.822Z,18
2018-08-11T05:30:35.801Z,18
2018-08-11T05:31:35.815Z,18
2018-08-11T05:32:35.789Z,18
2018-08-11T05:33:35.897Z,18
2018-08-11T05:34:35.807Z,18.06
2018-08-11T05:35:35.821Z,18.06
2018-08-11T05:36:35.876Z,18.06
2018-08-11T05:37:35.757Z,18.12
2018-08-11T05:38:35.796Z,18.12
2018-08-11T05:39:35.794Z,18.12
2018-08-11T05:40:35.761Z,18.12
2018-08-11T05:41:36.321Z,18.06
2018-08-11T05:42:35.785Z,18.12
2018-08-11T05:43:36.038Z,18.19
2018-08-11T05:44:35.948Z,18.19
2018-08-11T05:45:35.822Z,18.25
2018-08-11T05:46:35.801Z,18.25
2018-08-11T05:47:35.799Z,18.25
2018-08-11T05:48:35.803Z,18.19
2018-08-11T05:49:35.919Z,18.19
2018-08-11T05:50:35.836Z,18.19
2018-08-11T05:51:35.878Z,18.19
2018-08-11T05:52:35.898Z,18.25
2018-08-11T05:53:35.852Z,18.25
2018-08-11T05:54:36.001Z,18.31
2018-08-11T05:55:35.773Z,18.25
2018-08-11T05:56:35.761Z,18.25
2018-08-11T05:57:35.880Z,18.31
2018-08-11T05:58:35.759Z,18.31
2018-08-11T05:59:35.758Z,18.25
2018-08-11T06:00:35.861Z,18.31
2018-08-11T06:01:35.880Z,18.31
2018-08-11T06:02:35.740Z,18.31
2018-08-11T06:03:35.748Z,18.31
2018-08-11T06:04:35.777Z,18.37
2018-08-11T06:05:35.733Z,18.37
2018-08-11T06:06:35.768Z,18.37
2018-08-11T06:07:35.740Z,18.44
2018-08-11T06:08:35.767Z,18.44
2018-08-11T06:09:35.780Z,18.44
2018-08-11T06:10:36.485Z,18.44
2018-08-11T06:11:35.766Z,18.5
2018-08-11T06:12:35.758Z,18.37
2018-08-11T06:13:35.752Z,18.44
2018-08-11T06:14:35.772Z,18.44
2018-08-11T06:15:35.737Z,18.44
2018-08-11T06:16:35.771Z,18.44
2018-08-11T06:17:35.761Z,18.44
2018-08-11T06:18:35.974Z,18.5
2018-08-11T06:19:35.797Z,18.44
2018-08-11T06:20:35.744Z,18.44
2018-08-11T06:21:35.809Z,18.44
2018-08-11T06:22:35.787Z,18.37
2018-08-11T06:23:35.759Z,18.37
2018-08-11T06:24:36.000Z,18.37
2018-08-11T06:25:35.771Z,18.37
2018-08-11T06:26:35.764Z,18.37
2018-08-11T06:27:35.788Z,18.37
2018-08-11T06:28:35.759Z,18.37
2018-08-11T06:29:35.963Z,18.44
2018-08-11T06:30:35.813Z,18.44
2018-08-11T06:31:37.606Z,18.5
2018-08-11T06:32:35.775Z,18.44
2018-08-11T06:33:35.883Z,18.5
2018-08-11T06:34:35.912Z,18.5
2018-08-11T06:35:35.935Z,18.5
2018-08-11T06:36:35.792Z,18.56
2018-08-11T06:37:35.912Z,18.56
2018-08-11T06:38:35.866Z,18.56
2018-08-11T06:39:35.788Z,18.62
2018-08-11T06:40:36.338Z,18.62
2018-08-11T06:41:36.078Z,18.62
2018-08-11T06:42:35.865Z,18.69
2018-08-11T06:43:35.824Z,18.69
2018-08-11T06:44:35.780Z,18.75
2018-08-11T06:45:35.867Z,18.75
2018-08-11T06:46:36.101Z,18.81
2018-08-11T06:47:35.820Z,18.81
2018-08-11T06:48:35.759Z,18.81
2018-08-11T06:49:35.826Z,18.81
2018-08-11T06:50:35.775Z,18.81
2018-08-11T06:51:35.779Z,18.81
2018-08-11T06:52:36.040Z,18.81
2018-08-11T06:53:35.827Z,18.81
2018-08-11T06:54:35.839Z,18.87
2018-08-11T06:55:36.857Z,18.94
2018-08-11T06:56:35.772Z,18.94
2018-08-11T06:57:35.820Z,18.94
2018-08-11T06:58:35.879Z,18.94
2018-08-11T06:59:35.804Z,19
2018-08-11T07:00:35.793Z,19
2018-08-11T07:01:35.900Z,19
2018-08-11T07:02:35.765Z,19.12
2018-08-11T07:03:36.045Z,19.06
2018-08-11T07:04:35.780Z,19.12
2018-08-11T07:05:35.812Z,19.12
2018-08-11T07:06:36.549Z,19.12
2018-08-11T07:07:35.856Z,19.19
2018-08-11T07:08:35.773Z,19.25
2018-08-11T07:09:35.762Z,19.25
2018-08-11T07:10:35.952Z,19.31
2018-08-11T07:11:35.994Z,19.31
2018-08-11T07:12:35.760Z,19.31
2018-08-11T07:13:36.140Z,19.31
2018-08-11T07:14:35.772Z,19.37
2018-08-11T07:15:35.757Z,19.37
2018-08-11T07:16:35.825Z,19.44
2018-08-11T07:17:35.769Z,19.5
2018-08-11T07:18:35.783Z,19.5
2018-08-11T07:19:35.782Z,19.56
2018-08-11T07:20:35.764Z,19.56
2018-08-11T07:21:36.191Z,19.56
2018-08-11T07:22:35.786Z,19.56
2018-08-11T07:23:35.775Z,19.62
2018-08-11T07:24:35.817Z,19.69
2018-08-11T07:25:35.886Z,19.69
2018-08-11T07:26:36.888Z,19.75
2018-08-11T07:27:35.802Z,19.81
2018-08-11T07:28:35.751Z,19.81
2018-08-11T07:29:36.022Z,19.81
2018-08-11T07:30:35.784Z,19.81
2018-08-11T07:31:35.739Z,19.87
2018-08-11T07:32:35.819Z,19.81
2018-08-11T07:33:35.754Z,19.81
2018-08-11T07:34:35.798Z,19.87
2018-08-11T07:35:35.946Z,19.81
2018-08-11T07:36:36.438Z,19.81
2018-08-11T07:37:37.431Z,19.87
2018-08-11T07:38:36.091Z,19.81
2018-08-11T07:39:36.234Z,19.87
2018-08-11T07:40:37.105Z,19.87
2018-08-11T07:41:35.824Z,19.87
2018-08-11T07:42:35.793Z,19.87
2018-08-11T07:43:35.912Z,19.87
2018-08-11T07:44:35.736Z,19.94
2018-08-11T07:45:35.769Z,19.94
2018-08-11T07:46:35.758Z,19.94
2018-08-11T07:47:36.309Z,20
2018-08-11T07:48:36.495Z,20
2018-08-11T07:49:36.373Z,20
2018-08-11T07:50:35.960Z,20
2018-08-11T07:51:35.832Z,20
2018-08-11T07:52:35.803Z,20
2018-08-11T07:53:35.798Z,20.06
2018-08-11T07:54:35.875Z,20
2018-08-11T07:55:35.781Z,20.12
2018-08-11T07:56:35.807Z,20.12
2018-08-11T07:57:35.757Z,20.12
2018-08-11T07:58:35.843Z,20.19
2018-08-11T07:59:35.778Z,20.19
2018-08-11T08:00:35.940Z,20.12
2018-08-11T08:01:35.749Z,20.19
2018-08-11T08:02:35.848Z,20.19
2018-08-11T08:03:35.810Z,20.25
2018-08-11T08:04:35.903Z,20.31
2018-08-11T08:05:35.798Z,20.31
2018-08-11T08:06:35.917Z,20.37
2018-08-11T08:07:35.892Z,20.37
2018-08-11T08:08:35.763Z,20.37
2018-08-11T08:09:35.816Z,20.44
2018-08-11T08:10:35.770Z,20.44
2018-08-11T08:11:35.810Z,20.44
2018-08-11T08:12:35.945Z,20.5
2018-08-11T08:13:35.958Z,20.5
2018-08-11T08:14:35.926Z,20.56
2018-08-11T08:15:35.759Z,20.62
2018-08-11T08:16:35.777Z,20.69
2018-08-11T08:17:35.766Z,20.75
2018-08-11T08:18:35.786Z,20.75
2018-08-11T08:19:35.760Z,20.88
2018-08-11T08:20:35.826Z,20.88
2018-08-11T08:21:35.711Z,20.88
2018-08-11T08:22:36.072Z,21
2018-08-11T08:23:36.164Z,21
2018-08-11T08:24:35.906Z,21.06
2018-08-11T08:25:35.932Z,21.06
2018-08-11T08:26:37.129Z,21.12
2018-08-11T08:27:35.779Z,21.19
2018-08-11T08:28:35.741Z,21.25
2018-08-11T08:29:35.790Z,21.31
2018-08-11T08:30:35.785Z,21.37
2018-08-11T08:31:35.823Z,21.37
2018-08-11T08:32:35.776Z,21.44
2018-08-11T08:33:35.795Z,21.44
2018-08-11T08:34:35.726Z,21.5
2018-08-11T08:35:35.761Z,21.56
2018-08-11T08:36:36.160Z,21.62
2018-08-11T08:37:35.781Z,21.56
2018-08-11T08:38:35.788Z,21.62
2018-08-11T08:39:35.755Z,21.56
2018-08-11T08:40:35.733Z,21.62
2018-08-11T08:41:35.743Z,21.62
2018-08-11T08:42:35.783Z,21.56
2018-08-11T08:43:35.733Z,21.62
2018-08-11T08:44:35.747Z,21.56
2018-08-11T08:45:35.747Z,21.62
2018-08-11T08:46:35.751Z,21.69
2018-08-11T08:47:36.711Z,21.75
2018-08-11T08:48:35.758Z,21.69
2018-08-11T08:49:35.729Z,21.75
2018-08-11T08:50:35.965Z,21.81
2018-08-11T08:51:35.711Z,21.75
2018-08-11T08:52:35.733Z,21.75
2018-08-11T08:53:35.725Z,21.75
2018-08-11T08:54:35.789Z,21.69
2018-08-11T08:55:35.954Z,21.62
2018-08-11T08:56:35.921Z,21.62
2018-08-11T08:57:36.011Z,21.62
2018-08-11T08:58:35.742Z,21.62
2018-08-11T08:59:35.858Z,21.62
2018-08-11T09:00:36.134Z,21.69
2018-08-11T09:01:35.828Z,21.69
2018-08-11T09:02:35.799Z,21.75
2018-08-11T09:03:35.755Z,21.81
2018-08-11T09:04:35.757Z,21.75
2018-08-11T09:05:35.779Z,21.75
2018-08-11T09:06:35.749Z,21.69
2018-08-11T09:07:35.804Z,21.69
2018-08-11T09:08:35.836Z,21.75
2018-08-11T09:09:35.744Z,21.81
2018-08-11T09:10:35.894Z,21.87
2018-08-11T09:11:35.749Z,21.94
2018-08-11T09:12:35.889Z,21.94
2018-08-11T09:13:35.785Z,22
2018-08-11T09:14:35.792Z,22
2018-08-11T09:15:35.980Z,22
2018-08-11T09:16:36.065Z,22.06
2018-08-11T09:17:35.873Z,22.06
2018-08-11T09:18:35.928Z,22.13
2018-08-11T09:19:36.883Z,22.19
2018-08-11T09:20:36.528Z,22.19
2018-08-11T09:21:36.058Z,22.25
2018-08-11T09:22:35.737Z,22.25
2018-08-11T09:23:36.125Z,22.31
2018-08-11T09:24:35.932Z,22.31
2018-08-11T09:25:35.783Z,22.31
2018-08-11T09:26:35.936Z,22.25
2018-08-11T09:27:36.019Z,22.25
2018-08-11T09:28:35.921Z,22.25
2018-08-11T09:29:36.972Z,22.25
2018-08-11T09:30:36.000Z,22.25
2018-08-11T09:31:37.783Z,22.25
2018-08-11T09:32:35.853Z,22.25
2018-08-11T09:33:35.963Z,22.25
2018-08-11T09:34:35.878Z,22.31
2018-08-11T09:35:18.512Z,22.44
2018-08-11T09:36:18.268Z,22.44
2018-08-11T09:37:18.180Z,22.44
2018-08-11T09:38:18.577Z,22.5
2018-08-11T09:39:18.445Z,22.5
2018-08-11T09:40:18.516Z,22.62
2018-08-11T09:41:19.345Z,22.62
2018-08-11T09:42:18.216Z,22.69
2018-08-11T09:43:18.339Z,22.69
2018-08-11T09:44:18.439Z,22.75
2018-08-11T09:45:18.164Z,22.81
2018-08-11T09:46:18.443Z,22.87
2018-08-11T09:47:18.208Z,22.81
2018-08-11T09:48:18.169Z,22.75
2018-08-11T09:49:18.357Z,22.87
2018-08-11T09:50:18.251Z,22.87
2018-08-11T09:51:18.187Z,22.94
2018-08-11T09:52:18.864Z,22.94
2018-08-11T09:53:18.338Z,22.87
2018-08-11T09:54:18.208Z,23
2018-08-11T09:55:18.354Z,23
2018-08-11T09:56:18.144Z,22.94
2018-08-11T09:57:18.153Z,23
2018-08-11T09:58:18.213Z,23
2018-08-11T09:59:18.149Z,23.12
2018-08-11T10:00:18.185Z,23.12
2018-08-11T10:01:18.338Z,23.19
2018-08-11T10:02:18.170Z,23.25
2018-08-11T10:03:18.143Z,23.31
2018-08-11T10:04:18.271Z,23.19
2018-08-11T10:05:18.139Z,23.12
2018-08-11T10:06:18.134Z,23.12
2018-08-11T10:07:18.319Z,23.06
2018-08-11T10:08:18.278Z,23.06
2018-08-11T10:09:18.200Z,23.12
2018-08-11T10:10:18.272Z,23.06
2018-08-11T10:11:18.148Z,23.06
2018-08-11T10:12:18.326Z,23.12
2018-08-11T10:13:18.656Z,23.12
2018-08-11T10:14:18.160Z,23.06
2018-08-11T10:15:18.320Z,23.12
2018-08-11T10:16:18.373Z,23.19
2018-08-11T10:17:18.166Z,23.31
2018-08-11T10:18:18.230Z,23.31
2018-08-11T10:19:18.233Z,23.38
2018-08-11T10:20:18.774Z,23.31
2018-08-11T10:21:18.168Z,23.31
2018-08-11T10:22:18.325Z,23.31
2018-08-11T10:23:18.138Z,23.38
2018-08-11T10:24:18.233Z,23.31
2018-08-11T10:25:18.397Z,23.31
2018-08-11T10:26:18.156Z,23.31
2018-08-11T10:27:18.108Z,23.25
2018-08-11T10:28:18.331Z,23.19
2018-08-11T10:29:18.152Z,23.12
2018-08-11T10:30:18.542Z,23.12
2018-08-11T10:31:18.460Z,23.12
2018-08-11T10:32:18.104Z,23
2018-08-11T10:33:18.350Z,23
2018-08-11T10:34:18.262Z,22.94
2018-08-11T10:35:18.231Z,22.94
2018-08-11T10:36:18.141Z,22.94
2018-08-11T10:37:19.330Z,22.94
2018-08-11T10:38:18.454Z,22.87
2018-08-11T10:39:18.118Z,22.94
2018-08-11T10:40:19.147Z,22.87
2018-08-11T10:41:18.206Z,22.94
2018-08-11T10:42:18.136Z,22.94
2018-08-11T10:43:18.224Z,22.94
2018-08-11T10:44:18.217Z,22.94
2018-08-11T10:45:18.422Z,23
2018-08-11T10:46:18.486Z,22.94
2018-08-11T10:47:18.119Z,22.94
2018-08-11T10:48:18.426Z,23
2018-08-11T10:49:18.261Z,23
2018-08-11T10:50:18.149Z,23
2018-08-11T10:51:18.392Z,23
2018-08-11T10:52:18.209Z,23
2018-08-11T10:53:18.119Z,23.06
2018-08-11T10:54:18.167Z,23.06
2018-08-11T10:55:18.513Z,23.12
2018-08-11T10:56:18.152Z,23.25
2018-08-11T10:57:18.189Z,23.25
2018-08-11T10:58:18.834Z,23.38
2018-08-11T10:59:18.115Z,23.44
2018-08-11T11:00:18.152Z,23.56
2018-08-11T11:01:18.859Z,23.62
2018-08-11T11:02:18.364Z,23.69
2018-08-11T11:03:18.146Z,23.75
2018-08-11T11:04:18.162Z,23.75
2018-08-11T11:05:18.117Z,23.81
2018-08-11T11:06:18.140Z,23.87
2018-08-11T11:07:18.297Z,23.94
2018-08-11T11:08:18.444Z,23.94
2018-08-11T11:09:18.113Z,24
2018-08-11T11:10:18.231Z,23.94
2018-08-11T11:11:18.135Z,24
2018-08-11T11:12:18.124Z,23.94
2018-08-11T11:13:18.340Z,23.81
2018-08-11T11:14:18.570Z,23.75
2018-08-11T11:15:18.245Z,23.75
2018-08-11T11:16:18.108Z,23.75
2018-08-11T11:17:18.179Z,23.62
2018-08-11T11:18:18.117Z,23.62
2018-08-11T11:19:18.288Z,23.56
2018-08-11T11:20:18.381Z,23.5
2018-08-11T11:21:18.122Z,23.44
2018-08-11T11:22:18.195Z,23.31
2018-08-11T11:23:18.145Z,23.25
2018-08-11T11:24:18.122Z,23.25
2018-08-11T11:25:18.229Z,23.19
2018-08-11T11:26:18.392Z,23.19
2018-08-11T11:27:18.167Z,23.19
2018-08-11T11:28:18.236Z,23.25
2018-08-11T11:29:18.412Z,23.38
2018-08-11T11:30:18.144Z,23.44
2018-08-11T11:31:19.322Z,23.5
2018-08-11T11:32:18.128Z,23.62
2018-08-11T11:33:18.116Z,23.69
2018-08-11T11:34:18.172Z,23.75
2018-08-11T11:35:18.090Z,23.87
2018-08-11T11:36:18.183Z,23.94
2018-08-11T11:37:19.756Z,24
2018-08-11T11:38:18.146Z,23.94
2018-08-11T11:39:18.201Z,23.87
2018-08-11T11:40:18.229Z,24
2018-08-11T11:41:18.134Z,24.06
2018-08-11T11:42:18.178Z,24.06
2018-08-11T11:43:18.660Z,24.12
2018-08-11T11:44:18.095Z,24.12
2018-08-11T11:45:18.221Z,24.19
2018-08-11T11:46:18.270Z,24.25
2018-08-11T11:47:18.110Z,24.31
2018-08-11T11:48:18.105Z,24.44
2018-08-11T11:49:18.278Z,24.5
2018-08-11T11:50:18.107Z,24.5
2018-08-11T11:51:18.135Z,24.5
2018-08-11T11:52:18.529Z,24.5
2018-08-11T11:53:18.149Z,24.56
2018-08-11T11:54:18.156Z,24.63
2018-08-11T11:55:18.232Z,24.69
2018-08-11T11:56:18.121Z,24.63
2018-08-11T11:57:18.084Z,24.69
2018-08-11T11:58:18.249Z,24.69
2018-08-11T11:59:18.317Z,24.75
2018-08-11T12:00:18.130Z,24.75
2018-08-11T12:01:18.284Z,24.69
2018-08-11T12:02:18.165Z,24.75
2018-08-11T12:03:18.108Z,24.81
2018-08-11T12:04:18.176Z,24.81
2018-08-11T12:05:18.211Z,24.87
2018-08-11T12:06:18.126Z,24.87
2018-08-11T12:07:18.311Z,24.81
2018-08-11T12:08:18.178Z,24.87
2018-08-11T12:09:18.111Z,24.94
2018-08-11T12:10:18.335Z,24.87
2018-08-11T12:11:18.090Z,24.87
2018-08-11T12:12:18.083Z,24.81
2018-08-11T12:13:18.280Z,24.81
2018-08-11T12:14:18.130Z,24.87
2018-08-11T12:15:18.085Z,25
2018-08-11T12:16:18.158Z,25
2018-08-11T12:17:18.356Z,25.06
2018-08-11T12:18:18.185Z,25
2018-08-11T12:19:18.637Z,25
2018-08-11T12:20:18.130Z,25.06
2018-08-11T12:21:18.126Z,25.12
2018-08-11T12:22:18.195Z,25.12
2018-08-11T12:23:18.102Z,25
2018-08-11T12:24:18.076Z,24.87
2018-08-11T12:25:18.156Z,24.81
2018-08-11T12:26:18.117Z,24.75
2018-08-11T12:27:18.094Z,24.75
2018-08-11T12:28:18.254Z,24.81
2018-08-11T12:29:18.097Z,24.81
2018-08-11T12:30:18.085Z,24.87
2018-08-11T12:31:19.599Z,24.94
2018-08-11T12:32:18.152Z,25
2018-08-11T12:33:18.097Z,25.06
2018-08-11T12:34:18.278Z,25.12
2018-08-11T12:35:18.108Z,25.19
2018-08-11T12:36:18.136Z,25.12
2018-08-11T12:37:18.198Z,25
2018-08-11T12:38:18.130Z,24.94
2018-08-11T12:39:18.079Z,24.94
2018-08-11T12:40:18.236Z,25.06
2018-08-11T12:41:18.091Z,25.06
2018-08-11T12:42:18.072Z,25.12
2018-08-11T12:43:18.271Z,25.19
2018-08-11T12:44:18.129Z,25.25
2018-08-11T12:45:18.133Z,25.31
2018-08-11T12:46:18.274Z,25.31
2018-08-11T12:47:18.142Z,25.31
2018-08-11T12:48:18.125Z,25.44
2018-08-11T12:49:18.340Z,25.5
2018-08-11T12:50:18.102Z,25.56
2018-08-11T12:51:18.141Z,25.62
2018-08-11T12:52:18.214Z,25.62
2018-08-11T12:53:18.550Z,25.56
2018-08-11T12:54:18.124Z,25.56
2018-08-11T12:55:18.181Z,25.56
2018-08-11T12:56:18.140Z,25.56
2018-08-11T12:57:18.204Z,25.5
2018-08-11T12:58:18.138Z,25.5
2018-08-11T12:59:18.075Z,25.5
2018-08-11T13:00:18.116Z,25.56
2018-08-11T13:01:18.296Z,25.5